sensor_id;sensor_type;location;lat;lon;timestamp;P1;durP1;ratioP1;P2;durP2;ratioP2
55076;SDS011;40971;44.702;11.030;2022-11-12T00:00:02;39.95;;;18.17;;
55076;SDS011;40971;44.702;11.030;2022-11-12T00:02:28;52.13;;;21.73;;
55076;SDS011;40971;44.702;11.030;2022-11-12T00:04:53;44.25;;;22.73;;
55076;SDS011;40971;44.702;11.030;2022-11-12T00:07:19;60.90;;;22.23;;
55076;SDS011;40971;44.702;11.030;2022-11-12T00:09:44;46.58;;;20.02;;
55076;SDS011;40971;44.702;11.030;2022-11-12T00:12:10;53.40;;;20.88;;
55076;SDS011;40971;44.702;11.030;2022-11-12T00:14:35;51.83;;;22.50;;
55076;SDS011;40971;44.702;11.030;2022-11-12T00:17:00;61.70;;;24.67;;
55076;SDS011;40971;44.702;11.030;2022-11-12T00:19:26;78.75;;;28.70;;
55076;SDS011;40971;44.702;11.030;2022-11-12T00:21:51;54.17;;;23.95;;
55076;SDS011;40971;44.702;11.030;2022-11-12T00:24:17;55.58;;;23.13;;
55076;SDS011;40971;44.702;11.030;2022-11-12T00:26:42;65.43;;;27.15;;
55076;SDS011;40971;44.702;11.030;2022-11-12T00:29:07;73.05;;;26.50;;
55076;SDS011;40971;44.702;11.030;2022-11-12T00:31:33;66.32;;;25.83;;
55076;SDS011;40971;44.702;11.030;2022-11-12T00:33:58;74.55;;;26.00;;
55076;SDS011;40971;44.702;11.030;2022-11-12T00:36:24;65.95;;;23.95;;
55076;SDS011;40971;44.702;11.030;2022-11-12T00:38:49;91.57;;;26.27;;
55076;SDS011;40971;44.702;11.030;2022-11-12T00:41:18;58.95;;;25.52;;
55076;SDS011;40971;44.702;11.030;2022-11-12T00:43:43;74.10;;;22.13;;
55076;SDS011;40971;44.702;11.030;2022-11-12T00:46:09;72.50;;;23.85;;
55076;SDS011;40971;44.702;11.030;2022-11-12T00:48:37;74.70;;;23.88;;
55076;SDS011;40971;44.702;11.030;2022-11-12T00:51:03;57.67;;;24.90;;
55076;SDS011;40971;44.702;11.030;2022-11-12T00:53:30;60.72;;;24.20;;
55076;SDS011;40971;44.702;11.030;2022-11-12T00:56:02;65.03;;;23.05;;
55076;SDS011;40971;44.702;11.030;2022-11-12T00:58:31;58.22;;;22.88;;
55076;SDS011;40971;44.702;11.030;2022-11-12T01:01:08;55.78;;;22.63;;
55076;SDS011;40971;44.702;11.030;2022-11-12T01:03:38;46.03;;;21.55;;
55076;SDS011;40971;44.702;11.030;2022-11-12T01:06:10;115.20;;;24.13;;
55076;SDS011;40971;44.702;11.030;2022-11-12T01:08:40;61.30;;;20.83;;
55076;SDS011;40971;44.702;11.030;2022-11-12T01:11:23;95.15;;;22.75;;
55076;SDS011;40971;44.702;11.030;2022-11-12T01:13:56;91.20;;;21.50;;
55076;SDS011;40971;44.702;11.030;2022-11-12T01:16:24;73.43;;;23.00;;
55076;SDS011;40971;44.702;11.030;2022-11-12T01:18:52;51.97;;;20.55;;
55076;SDS011;40971;44.702;11.030;2022-11-12T01:21:19;96.05;;;22.05;;
55076;SDS011;40971;44.702;11.030;2022-11-12T01:23:45;79.20;;;20.75;;
55076;SDS011;40971;44.702;11.030;2022-11-12T01:26:18;65.72;;;22.25;;
55076;SDS011;40971;44.702;11.030;2022-11-12T01:28:45;67.28;;;22.17;;
55076;SDS011;40971;44.702;11.030;2022-11-12T01:33:48;80.70;;;24.17;;
55076;SDS011;40971;44.702;11.030;2022-11-12T01:36:17;110.85;;;22.92;;
55076;SDS011;40971;44.702;11.030;2022-11-12T01:38:44;104.40;;;23.38;;
55076;SDS011;40971;44.702;11.030;2022-11-12T01:41:12;43.58;;;21.13;;
55076;SDS011;40971;44.702;11.030;2022-11-12T01:43:40;57.30;;;22.05;;
55076;SDS011;40971;44.702;11.030;2022-11-12T01:46:26;69.30;;;22.38;;
55076;SDS011;40971;44.702;11.030;2022-11-12T01:48:57;53.17;;;23.48;;
55076;SDS011;40971;44.702;11.030;2022-11-12T01:51:27;61.75;;;23.98;;
55076;SDS011;40971;44.702;11.030;2022-11-12T01:53:57;60.78;;;23.80;;
55076;SDS011;40971;44.702;11.030;2022-11-12T01:56:26;61.45;;;22.25;;
55076;SDS011;40971;44.702;11.030;2022-11-12T01:58:57;68.45;;;24.30;;
55076;SDS011;40971;44.702;11.030;2022-11-12T02:01:26;59.78;;;22.80;;
55076;SDS011;40971;44.702;11.030;2022-11-12T02:03:52;64.65;;;24.48;;
55076;SDS011;40971;44.702;11.030;2022-11-12T02:06:23;66.50;;;24.80;;
55076;SDS011;40971;44.702;11.030;2022-11-12T02:08:49;78.70;;;25.63;;
55076;SDS011;40971;44.702;11.030;2022-11-12T02:11:16;71.35;;;26.38;;
55076;SDS011;40971;44.702;11.030;2022-11-12T02:13:43;71.95;;;25.00;;
55076;SDS011;40971;44.702;11.030;2022-11-12T02:16:24;70.25;;;24.92;;
55076;SDS011;40971;44.702;11.030;2022-11-12T02:18:52;72.03;;;28.13;;
55076;SDS011;40971;44.702;11.030;2022-11-12T02:21:18;68.40;;;25.73;;
55076;SDS011;40971;44.702;11.030;2022-11-12T02:23:45;78.47;;;25.55;;
55076;SDS011;40971;44.702;11.030;2022-11-12T02:26:11;78.95;;;25.90;;
55076;SDS011;40971;44.702;11.030;2022-11-12T02:28:37;71.97;;;25.17;;
55076;SDS011;40971;44.702;11.030;2022-11-12T02:31:02;81.38;;;27.50;;
55076;SDS011;40971;44.702;11.030;2022-11-12T02:33:27;81.63;;;28.10;;
55076;SDS011;40971;44.702;11.030;2022-11-12T02:35:53;79.85;;;28.60;;
55076;SDS011;40971;44.702;11.030;2022-11-12T02:38:19;75.57;;;26.75;;
55076;SDS011;40971;44.702;11.030;2022-11-12T02:40:45;76.75;;;25.50;;
55076;SDS011;40971;44.702;11.030;2022-11-12T02:43:10;76.20;;;26.00;;
55076;SDS011;40971;44.702;11.030;2022-11-12T02:45:35;78.13;;;25.88;;
55076;SDS011;40971;44.702;11.030;2022-11-12T02:48:01;83.65;;;28.33;;
55076;SDS011;40971;44.702;11.030;2022-11-12T02:50:26;97.78;;;29.58;;
55076;SDS011;40971;44.702;11.030;2022-11-12T02:52:52;101.35;;;30.15;;
55076;SDS011;40971;44.702;11.030;2022-11-12T02:55:17;83.60;;;28.52;;
55076;SDS011;40971;44.702;11.030;2022-11-12T02:57:43;81.65;;;27.77;;
55076;SDS011;40971;44.702;11.030;2022-11-12T03:00:10;89.32;;;30.42;;
55076;SDS011;40971;44.702;11.030;2022-11-12T03:02:37;100.63;;;31.77;;
55076;SDS011;40971;44.702;11.030;2022-11-12T03:05:07;82.97;;;28.58;;
55076;SDS011;40971;44.702;11.030;2022-11-12T03:07:34;97.68;;;29.73;;
55076;SDS011;40971;44.702;11.030;2022-11-12T03:09:59;97.97;;;30.98;;
55076;SDS011;40971;44.702;11.030;2022-11-12T03:12:25;83.45;;;29.45;;
55076;SDS011;40971;44.702;11.030;2022-11-12T03:14:50;77.57;;;28.20;;
55076;SDS011;40971;44.702;11.030;2022-11-12T03:17:15;82.63;;;28.48;;
55076;SDS011;40971;44.702;11.030;2022-11-12T03:19:41;90.95;;;29.38;;
55076;SDS011;40971;44.702;11.030;2022-11-12T03:22:06;96.07;;;28.88;;
55076;SDS011;40971;44.702;11.030;2022-11-12T03:24:32;86.07;;;27.67;;
55076;SDS011;40971;44.702;11.030;2022-11-12T03:26:57;86.32;;;28.45;;
55076;SDS011;40971;44.702;11.030;2022-11-12T03:29:23;91.15;;;29.08;;
55076;SDS011;40971;44.702;11.030;2022-11-12T03:31:50;86.25;;;28.85;;
55076;SDS011;40971;44.702;11.030;2022-11-12T03:34:15;91.63;;;29.45;;
55076;SDS011;40971;44.702;11.030;2022-11-12T03:36:41;114.88;;;30.17;;
55076;SDS011;40971;44.702;11.030;2022-11-12T03:39:06;71.78;;;27.48;;
55076;SDS011;40971;44.702;11.030;2022-11-12T03:41:31;95.20;;;29.13;;
55076;SDS011;40971;44.702;11.030;2022-11-12T03:43:57;91.03;;;28.70;;
55076;SDS011;40971;44.702;11.030;2022-11-12T03:46:22;79.03;;;27.63;;
55076;SDS011;40971;44.702;11.030;2022-11-12T03:48:48;67.88;;;25.38;;
55076;SDS011;40971;44.702;11.030;2022-11-12T03:51:13;86.10;;;27.75;;
55076;SDS011;40971;44.702;11.030;2022-11-12T03:53:40;82.10;;;28.55;;
55076;SDS011;40971;44.702;11.030;2022-11-12T03:56:06;86.68;;;28.17;;
55076;SDS011;40971;44.702;11.030;2022-11-12T03:58:31;89.00;;;27.92;;
55076;SDS011;40971;44.702;11.030;2022-11-12T04:00:57;80.05;;;27.15;;
55076;SDS011;40971;44.702;11.030;2022-11-12T04:03:22;81.95;;;25.90;;
55076;SDS011;40971;44.702;11.030;2022-11-12T04:05:48;89.47;;;26.70;;
55076;SDS011;40971;44.702;11.030;2022-11-12T04:08:34;84.75;;;27.38;;
55076;SDS011;40971;44.702;11.030;2022-11-12T04:11:07;77.85;;;25.73;;
55076;SDS011;40971;44.702;11.030;2022-11-12T04:13:36;77.35;;;27.58;;
55076;SDS011;40971;44.702;11.030;2022-11-12T04:16:35;82.22;;;25.05;;
55076;SDS011;40971;44.702;11.030;2022-11-12T04:19:12;82.32;;;23.83;;
55076;SDS011;40971;44.702;11.030;2022-11-12T04:27:18;90.13;;;24.20;;
55076;SDS011;40971;44.702;11.030;2022-11-12T04:29:51;77.35;;;25.60;;
55076;SDS011;40971;44.702;11.030;2022-11-12T04:32:37;83.40;;;24.80;;
55076;SDS011;40971;44.702;11.030;2022-11-12T04:35:05;86.82;;;27.45;;
55076;SDS011;40971;44.702;11.030;2022-11-12T04:37:36;84.28;;;23.35;;
55076;SDS011;40971;44.702;11.030;2022-11-12T04:40:13;78.68;;;24.08;;
55076;SDS011;40971;44.702;11.030;2022-11-12T04:42:59;87.55;;;27.92;;
55076;SDS011;40971;44.702;11.030;2022-11-12T04:45:44;80.20;;;25.67;;
55076;SDS011;40971;44.702;11.030;2022-11-12T04:48:12;77.32;;;26.27;;
55076;SDS011;40971;44.702;11.030;2022-11-12T04:50:38;89.18;;;25.98;;
55076;SDS011;40971;44.702;11.030;2022-11-12T04:53:04;72.72;;;24.23;;
55076;SDS011;40971;44.702;11.030;2022-11-12T04:55:31;72.53;;;25.40;;
55076;SDS011;40971;44.702;11.030;2022-11-12T04:57:57;81.13;;;25.98;;
55076;SDS011;40971;44.702;11.030;2022-11-12T05:00:22;89.30;;;26.25;;
55076;SDS011;40971;44.702;11.030;2022-11-12T05:02:50;74.68;;;24.52;;
55076;SDS011;40971;44.702;11.030;2022-11-12T05:05:16;92.13;;;27.45;;
55076;SDS011;40971;44.702;11.030;2022-11-12T05:07:41;85.15;;;26.83;;
55076;SDS011;40971;44.702;11.030;2022-11-12T05:10:08;86.47;;;26.50;;
55076;SDS011;40971;44.702;11.030;2022-11-12T05:12:34;86.00;;;26.70;;
55076;SDS011;40971;44.702;11.030;2022-11-12T05:14:59;69.65;;;25.48;;
55076;SDS011;40971;44.702;11.030;2022-11-12T05:17:26;94.90;;;26.55;;
55076;SDS011;40971;44.702;11.030;2022-11-12T05:19:51;79.60;;;27.08;;
55076;SDS011;40971;44.702;11.030;2022-11-12T05:22:17;79.63;;;25.98;;
55076;SDS011;40971;44.702;11.030;2022-11-12T05:24:42;89.25;;;27.00;;
55076;SDS011;40971;44.702;11.030;2022-11-12T05:29:35;82.63;;;27.30;;
55076;SDS011;40971;44.702;11.030;2022-11-12T05:32:01;79.60;;;24.70;;
55076;SDS011;40971;44.702;11.030;2022-11-12T05:34:27;82.97;;;26.27;;
55076;SDS011;40971;44.702;11.030;2022-11-12T05:36:52;65.30;;;23.15;;
55076;SDS011;40971;44.702;11.030;2022-11-12T05:39:18;73.60;;;23.02;;
55076;SDS011;40971;44.702;11.030;2022-11-12T05:41:43;152.85;;;27.33;;
55076;SDS011;40971;44.702;11.030;2022-11-12T05:44:09;99.30;;;25.13;;
55076;SDS011;40971;44.702;11.030;2022-11-12T05:46:34;103.07;;;24.27;;
55076;SDS011;40971;44.702;11.030;2022-11-12T05:49:00;82.78;;;22.52;;
55076;SDS011;40971;44.702;11.030;2022-11-12T05:51:25;88.40;;;23.92;;
55076;SDS011;40971;44.702;11.030;2022-11-12T05:53:51;79.50;;;22.40;;
55076;SDS011;40971;44.702;11.030;2022-11-12T05:56:16;75.00;;;23.10;;
55076;SDS011;40971;44.702;11.030;2022-11-12T05:58:41;85.07;;;23.00;;
55076;SDS011;40971;44.702;11.030;2022-11-12T06:01:07;77.50;;;21.50;;
55076;SDS011;40971;44.702;11.030;2022-11-12T06:03:32;91.47;;;23.55;;
55076;SDS011;40971;44.702;11.030;2022-11-12T06:06:05;70.55;;;21.83;;
55076;SDS011;40971;44.702;11.030;2022-11-12T06:08:31;61.92;;;19.02;;
55076;SDS011;40971;44.702;11.030;2022-11-12T06:10:56;75.00;;;20.17;;
55076;SDS011;40971;44.702;11.030;2022-11-12T06:13:22;82.10;;;23.20;;
55076;SDS011;40971;44.702;11.030;2022-11-12T06:15:50;54.22;;;20.95;;
55076;SDS011;40971;44.702;11.030;2022-11-12T06:18:24;75.10;;;21.55;;
55076;SDS011;40971;44.702;11.030;2022-11-12T06:20:49;64.03;;;21.38;;
55076;SDS011;40971;44.702;11.030;2022-11-12T06:23:34;61.17;;;18.20;;
55076;SDS011;40971;44.702;11.030;2022-11-12T06:26:00;53.33;;;18.45;;
55076;SDS011;40971;44.702;11.030;2022-11-12T06:28:26;55.50;;;17.92;;
55076;SDS011;40971;44.702;11.030;2022-11-12T06:30:51;49.35;;;17.40;;
55076;SDS011;40971;44.702;11.030;2022-11-12T06:33:17;77.65;;;19.52;;
55076;SDS011;40971;44.702;11.030;2022-11-12T06:35:42;79.75;;;18.98;;
55076;SDS011;40971;44.702;11.030;2022-11-12T06:38:08;85.22;;;20.15;;
55076;SDS011;40971;44.702;11.030;2022-11-12T06:40:33;56.60;;;19.52;;
55076;SDS011;40971;44.702;11.030;2022-11-12T06:42:59;69.75;;;19.48;;
55076;SDS011;40971;44.702;11.030;2022-11-12T06:45:24;53.38;;;20.00;;
55076;SDS011;40971;44.702;11.030;2022-11-12T06:47:49;72.78;;;21.48;;
55076;SDS011;40971;44.702;11.030;2022-11-12T06:50:15;53.67;;;18.15;;
55076;SDS011;40971;44.702;11.030;2022-11-12T06:52:40;61.35;;;20.80;;
55076;SDS011;40971;44.702;11.030;2022-11-12T06:55:06;72.68;;;20.65;;
55076;SDS011;40971;44.702;11.030;2022-11-12T06:57:32;75.55;;;20.15;;
55076;SDS011;40971;44.702;11.030;2022-11-12T06:59:58;57.83;;;18.92;;
55076;SDS011;40971;44.702;11.030;2022-11-12T07:02:24;70.90;;;20.00;;
55076;SDS011;40971;44.702;11.030;2022-11-12T07:04:49;76.53;;;20.70;;
55076;SDS011;40971;44.702;11.030;2022-11-12T07:07:15;83.18;;;21.13;;
55076;SDS011;40971;44.702;11.030;2022-11-12T07:09:40;63.05;;;18.77;;
55076;SDS011;40971;44.702;11.030;2022-11-12T07:12:06;61.13;;;19.23;;
55076;SDS011;40971;44.702;11.030;2022-11-12T07:14:31;66.82;;;20.48;;
55076;SDS011;40971;44.702;11.030;2022-11-12T07:16:57;56.50;;;20.13;;
55076;SDS011;40971;44.702;11.030;2022-11-12T07:19:22;76.88;;;18.70;;
55076;SDS011;40971;44.702;11.030;2022-11-12T07:21:47;59.50;;;19.15;;
55076;SDS011;40971;44.702;11.030;2022-11-12T07:24:16;54.72;;;19.42;;
55076;SDS011;40971;44.702;11.030;2022-11-12T07:26:41;62.17;;;20.85;;
55076;SDS011;40971;44.702;11.030;2022-11-12T07:29:07;54.65;;;20.02;;
55076;SDS011;40971;44.702;11.030;2022-11-12T07:31:32;74.93;;;20.98;;
55076;SDS011;40971;44.702;11.030;2022-11-12T07:33:58;65.20;;;19.80;;
55076;SDS011;40971;44.702;11.030;2022-11-12T07:36:24;63.97;;;20.77;;
55076;SDS011;40971;44.702;11.030;2022-11-12T07:38:50;59.78;;;21.25;;
55076;SDS011;40971;44.702;11.030;2022-11-12T07:41:19;55.17;;;20.10;;
55076;SDS011;40971;44.702;11.030;2022-11-12T07:43:47;57.50;;;19.48;;
55076;SDS011;40971;44.702;11.030;2022-11-12T07:46:17;64.38;;;22.50;;
55076;SDS011;40971;44.702;11.030;2022-11-12T07:48:44;64.90;;;21.30;;
55076;SDS011;40971;44.702;11.030;2022-11-12T07:53:38;64.78;;;21.00;;
55076;SDS011;40971;44.702;11.030;2022-11-12T07:56:04;66.85;;;21.08;;
55076;SDS011;40971;44.702;11.030;2022-11-12T07:58:31;73.05;;;24.13;;
55076;SDS011;40971;44.702;11.030;2022-11-12T08:00:56;69.15;;;21.98;;
55076;SDS011;40971;44.702;11.030;2022-11-12T08:03:22;60.50;;;20.92;;
55076;SDS011;40971;44.702;11.030;2022-11-12T08:05:47;73.47;;;19.15;;
55076;SDS011;40971;44.702;11.030;2022-11-12T08:08:13;73.60;;;21.17;;
55076;SDS011;40971;44.702;11.030;2022-11-12T08:10:39;64.40;;;21.75;;
55076;SDS011;40971;44.702;11.030;2022-11-12T08:13:04;63.33;;;22.95;;
55076;SDS011;40971;44.702;11.030;2022-11-12T08:15:30;60.33;;;24.17;;
55076;SDS011;40971;44.702;11.030;2022-11-12T08:17:56;62.75;;;24.40;;
55076;SDS011;40971;44.702;11.030;2022-11-12T08:20:21;90.43;;;24.33;;
55076;SDS011;40971;44.702;11.030;2022-11-12T08:22:47;68.80;;;21.60;;
55076;SDS011;40971;44.702;11.030;2022-11-12T08:25:13;55.47;;;21.45;;
55076;SDS011;40971;44.702;11.030;2022-11-12T08:27:39;66.82;;;22.27;;
55076;SDS011;40971;44.702;11.030;2022-11-12T08:30:11;55.33;;;22.33;;
55076;SDS011;40971;44.702;11.030;2022-11-12T08:32:36;59.55;;;22.17;;
55076;SDS011;40971;44.702;11.030;2022-11-12T08:35:02;64.57;;;23.10;;
55076;SDS011;40971;44.702;11.030;2022-11-12T08:37:27;60.38;;;21.67;;
55076;SDS011;40971;44.702;11.030;2022-11-12T08:39:53;69.28;;;24.00;;
55076;SDS011;40971;44.702;11.030;2022-11-12T08:42:18;54.00;;;20.48;;
55076;SDS011;40971;44.702;11.030;2022-11-12T08:44:48;57.47;;;21.23;;
55076;SDS011;40971;44.702;11.030;2022-11-12T08:47:13;55.55;;;20.35;;
55076;SDS011;40971;44.702;11.030;2022-11-12T08:49:39;52.13;;;20.67;;
55076;SDS011;40971;44.702;11.030;2022-11-12T08:52:04;57.47;;;21.25;;
55076;SDS011;40971;44.702;11.030;2022-11-12T08:54:29;51.65;;;20.35;;
55076;SDS011;40971;44.702;11.030;2022-11-12T08:56:55;54.95;;;21.40;;
55076;SDS011;40971;44.702;11.030;2022-11-12T08:59:20;66.35;;;18.15;;
55076;SDS011;40971;44.702;11.030;2022-11-12T09:01:46;50.30;;;19.23;;
55076;SDS011;40971;44.702;11.030;2022-11-12T09:04:11;45.97;;;18.55;;
55076;SDS011;40971;44.702;11.030;2022-11-12T09:06:37;50.17;;;18.67;;
55076;SDS011;40971;44.702;11.030;2022-11-12T09:09:02;49.88;;;19.67;;
55076;SDS011;40971;44.702;11.030;2022-11-12T09:11:27;41.00;;;18.60;;
55076;SDS011;40971;44.702;11.030;2022-11-12T09:13:53;41.08;;;15.38;;
55076;SDS011;40971;44.702;11.030;2022-11-12T09:16:19;45.67;;;17.67;;
55076;SDS011;40971;44.702;11.030;2022-11-12T09:18:45;36.47;;;15.48;;
55076;SDS011;40971;44.702;11.030;2022-11-12T09:21:11;48.88;;;16.30;;
55076;SDS011;40971;44.702;11.030;2022-11-12T09:23:37;34.63;;;14.68;;
55076;SDS011;40971;44.702;11.030;2022-11-12T09:26:03;33.22;;;13.68;;
55076;SDS011;40971;44.702;11.030;2022-11-12T09:28:29;31.83;;;14.45;;
55076;SDS011;40971;44.702;11.030;2022-11-12T09:30:55;31.17;;;13.68;;
55076;SDS011;40971;44.702;11.030;2022-11-12T09:33:30;31.80;;;13.68;;
55076;SDS011;40971;44.702;11.030;2022-11-12T09:35:59;32.58;;;13.20;;
55076;SDS011;40971;44.702;11.030;2022-11-12T09:38:25;30.98;;;13.80;;
55076;SDS011;40971;44.702;11.030;2022-11-12T09:45:48;27.75;;;13.80;;
55076;SDS011;40971;44.702;11.030;2022-11-12T09:48:22;29.98;;;12.95;;
55076;SDS011;40971;44.702;11.030;2022-11-12T09:56:11;25.53;;;11.60;;
55076;SDS011;40971;44.702;11.030;2022-11-12T09:58:38;25.73;;;12.55;;
55076;SDS011;40971;44.702;11.030;2022-11-12T10:01:10;30.90;;;11.32;;
55076;SDS011;40971;44.702;11.030;2022-11-12T10:03:52;24.73;;;11.80;;
55076;SDS011;40971;44.702;11.030;2022-11-12T10:06:19;23.23;;;11.30;;
55076;SDS011;40971;44.702;11.030;2022-11-12T10:08:56;25.50;;;11.85;;
55076;SDS011;40971;44.702;11.030;2022-11-12T10:14:41;25.77;;;11.88;;
55076;SDS011;40971;44.702;11.030;2022-11-12T10:20:13;26.55;;;11.55;;
55076;SDS011;40971;44.702;11.030;2022-11-12T10:25:35;22.52;;;11.13;;
55076;SDS011;40971;44.702;11.030;2022-11-12T10:30:52;23.27;;;10.80;;
55076;SDS011;40971;44.702;11.030;2022-11-12T10:33:21;20.23;;;10.63;;
55076;SDS011;40971;44.702;11.030;2022-11-12T10:35:46;21.42;;;10.23;;
55076;SDS011;40971;44.702;11.030;2022-11-12T10:38:13;20.15;;;9.60;;
55076;SDS011;40971;44.702;11.030;2022-11-12T10:40:44;20.45;;;9.75;;
55076;SDS011;40971;44.702;11.030;2022-11-12T10:45:45;20.17;;;9.88;;
55076;SDS011;40971;44.702;11.030;2022-11-12T10:48:45;21.80;;;10.60;;
55076;SDS011;40971;44.702;11.030;2022-11-12T10:51:04;22.95;;;10.60;;
55076;SDS011;40971;44.702;11.030;2022-11-12T10:53:46;20.48;;;10.68;;
55076;SDS011;40971;44.702;11.030;2022-11-12T10:56:28;20.25;;;9.68;;
55076;SDS011;40971;44.702;11.030;2022-11-12T11:01:41;21.65;;;10.82;;
55076;SDS011;40971;44.702;11.030;2022-11-12T11:09:50;27.58;;;12.85;;
55076;SDS011;40971;44.702;11.030;2022-11-12T11:15:06;29.23;;;13.05;;
55076;SDS011;40971;44.702;11.030;2022-11-12T11:17:35;29.85;;;13.65;;
55076;SDS011;40971;44.702;11.030;2022-11-12T11:20:02;24.60;;;13.38;;
55076;SDS011;40971;44.702;11.030;2022-11-12T11:22:34;28.95;;;13.65;;
55076;SDS011;40971;44.702;11.030;2022-11-12T11:25:13;29.83;;;13.27;;
55076;SDS011;40971;44.702;11.030;2022-11-12T11:28:12;28.70;;;14.90;;
55076;SDS011;40971;44.702;11.030;2022-11-12T11:30:58;28.20;;;13.98;;
55076;SDS011;40971;44.702;11.030;2022-11-12T11:33:51;28.45;;;14.50;;
55076;SDS011;40971;44.702;11.030;2022-11-12T11:37:00;30.83;;;15.43;;
55076;SDS011;40971;44.702;11.030;2022-11-12T11:45:52;32.92;;;15.13;;
55076;SDS011;40971;44.702;11.030;2022-11-12T11:54:08;30.35;;;14.75;;
55076;SDS011;40971;44.702;11.030;2022-11-12T11:56:45;31.63;;;14.45;;
55076;SDS011;40971;44.702;11.030;2022-11-12T11:59:38;26.23;;;13.70;;
55076;SDS011;40971;44.702;11.030;2022-11-12T12:02:17;30.70;;;15.43;;
55076;SDS011;40971;44.702;11.030;2022-11-12T12:18:55;32.50;;;13.45;;
55076;SDS011;40971;44.702;11.030;2022-11-12T12:21:39;28.92;;;13.40;;
55076;SDS011;40971;44.702;11.030;2022-11-12T12:24:15;23.70;;;11.88;;
55076;SDS011;40971;44.702;11.030;2022-11-12T12:29:12;33.28;;;13.35;;
55076;SDS011;40971;44.702;11.030;2022-11-12T12:31:47;25.90;;;13.07;;
55076;SDS011;40971;44.702;11.030;2022-11-12T12:34:23;27.45;;;12.27;;
55076;SDS011;40971;44.702;11.030;2022-11-12T12:37:06;24.80;;;12.73;;
55076;SDS011;40971;44.702;11.030;2022-11-12T12:39:51;30.25;;;13.25;;
55076;SDS011;40971;44.702;11.030;2022-11-12T12:42:32;24.58;;;13.20;;
55076;SDS011;40971;44.702;11.030;2022-11-12T12:47:59;29.08;;;13.55;;
55076;SDS011;40971;44.702;11.030;2022-11-12T12:50:28;31.67;;;13.05;;
55076;SDS011;40971;44.702;11.030;2022-11-12T12:52:57;24.77;;;13.10;;
55076;SDS011;40971;44.702;11.030;2022-11-12T12:55:47;23.55;;;11.65;;
55076;SDS011;40971;44.702;11.030;2022-11-12T12:58:18;24.13;;;12.15;;
55076;SDS011;40971;44.702;11.030;2022-11-12T13:00:45;26.00;;;13.15;;
55076;SDS011;40971;44.702;11.030;2022-11-12T13:03:42;23.35;;;12.27;;
55076;SDS011;40971;44.702;11.030;2022-11-12T13:08:45;25.42;;;12.60;;
55076;SDS011;40971;44.702;11.030;2022-11-12T13:16:55;27.05;;;12.25;;
55076;SDS011;40971;44.702;11.030;2022-11-12T13:19:26;25.77;;;12.13;;
55076;SDS011;40971;44.702;11.030;2022-11-12T13:37:41;28.15;;;12.82;;
55076;SDS011;40971;44.702;11.030;2022-11-12T13:50:57;34.67;;;13.50;;
55076;SDS011;40971;44.702;11.030;2022-11-12T13:53:27;30.25;;;13.98;;
55076;SDS011;40971;44.702;11.030;2022-11-12T13:55:55;33.10;;;12.73;;
55076;SDS011;40971;44.702;11.030;2022-11-12T13:58:30;28.02;;;12.40;;
55076;SDS011;40971;44.702;11.030;2022-11-12T14:00:58;41.50;;;12.65;;
55076;SDS011;40971;44.702;11.030;2022-11-12T14:03:42;26.50;;;11.77;;
55076;SDS011;40971;44.702;11.030;2022-11-12T14:06:14;25.65;;;13.30;;
55076;SDS011;40971;44.702;11.030;2022-11-12T14:08:58;25.30;;;12.73;;
55076;SDS011;40971;44.702;11.030;2022-11-12T14:14:20;32.17;;;14.15;;
55076;SDS011;40971;44.702;11.030;2022-11-12T14:22:56;37.38;;;14.32;;
55076;SDS011;40971;44.702;11.030;2022-11-12T14:25:33;31.17;;;14.05;;
55076;SDS011;40971;44.702;11.030;2022-11-12T14:27:59;31.30;;;14.13;;
55076;SDS011;40971;44.702;11.030;2022-11-12T14:30:28;37.33;;;14.60;;
55076;SDS011;40971;44.702;11.030;2022-11-12T14:32:57;32.67;;;14.55;;
55076;SDS011;40971;44.702;11.030;2022-11-12T14:40:41;38.47;;;14.15;;
55076;SDS011;40971;44.702;11.030;2022-11-12T14:43:19;30.05;;;15.52;;
55076;SDS011;40971;44.702;11.030;2022-11-12T14:46:05;67.95;;;16.30;;
55076;SDS011;40971;44.702;11.030;2022-11-12T14:48:54;37.60;;;15.80;;
55076;SDS011;40971;44.702;11.030;2022-11-12T14:51:24;40.97;;;16.42;;
55076;SDS011;40971;44.702;11.030;2022-11-12T14:56:26;42.80;;;16.52;;
55076;SDS011;40971;44.702;11.030;2022-11-12T14:58:55;34.33;;;16.95;;
55076;SDS011;40971;44.702;11.030;2022-11-12T15:06:35;49.05;;;16.67;;
55076;SDS011;40971;44.702;11.030;2022-11-12T15:09:02;49.22;;;16.50;;
55076;SDS011;40971;44.702;11.030;2022-11-12T15:11:44;36.97;;;17.15;;
55076;SDS011;40971;44.702;11.030;2022-11-12T15:14:18;32.50;;;15.52;;
55076;SDS011;40971;44.702;11.030;2022-11-12T15:16:46;41.13;;;17.05;;
55076;SDS011;40971;44.702;11.030;2022-11-12T15:21:37;36.03;;;15.85;;
55076;SDS011;40971;44.702;11.030;2022-11-12T15:29:14;31.42;;;16.33;;
55076;SDS011;40971;44.702;11.030;2022-11-12T15:31:55;31.30;;;16.30;;
55076;SDS011;40971;44.702;11.030;2022-11-12T15:34:33;31.25;;;15.55;;
55076;SDS011;40971;44.702;11.030;2022-11-12T15:37:07;37.20;;;16.70;;
55076;SDS011;40971;44.702;11.030;2022-11-12T15:39:44;33.25;;;16.15;;
55076;SDS011;40971;44.702;11.030;2022-11-12T15:44:58;30.10;;;14.48;;
55076;SDS011;40971;44.702;11.030;2022-11-12T15:47:26;33.70;;;14.60;;
55076;SDS011;40971;44.702;11.030;2022-11-12T15:49:52;33.10;;;17.20;;
55076;SDS011;40971;44.702;11.030;2022-11-12T15:52:21;44.28;;;18.98;;
55076;SDS011;40971;44.702;11.030;2022-11-12T15:54:47;61.55;;;26.35;;
55076;SDS011;40971;44.702;11.030;2022-11-12T15:57:17;44.13;;;21.17;;
55076;SDS011;40971;44.702;11.030;2022-11-12T15:59:46;44.70;;;21.63;;
55076;SDS011;40971;44.702;11.030;2022-11-12T16:02:25;36.67;;;17.60;;
55076;SDS011;40971;44.702;11.030;2022-11-12T16:04:50;37.03;;;17.23;;
55076;SDS011;40971;44.702;11.030;2022-11-12T16:07:16;38.05;;;17.27;;
55076;SDS011;40971;44.702;11.030;2022-11-12T16:09:41;28.58;;;14.68;;
55076;SDS011;40971;44.702;11.030;2022-11-12T16:12:09;29.80;;;14.05;;
55076;SDS011;40971;44.702;11.030;2022-11-12T16:14:36;31.52;;;15.60;;
55076;SDS011;40971;44.702;11.030;2022-11-12T16:17:01;40.38;;;15.45;;
55076;SDS011;40971;44.702;11.030;2022-11-12T16:19:27;32.13;;;15.95;;
55076;SDS011;40971;44.702;11.030;2022-11-12T16:21:58;35.83;;;17.10;;
55076;SDS011;40971;44.702;11.030;2022-11-12T16:24:33;33.17;;;17.17;;
55076;SDS011;40971;44.702;11.030;2022-11-12T16:26:58;37.08;;;16.50;;
55076;SDS011;40971;44.702;11.030;2022-11-12T16:29:25;42.13;;;18.60;;
55076;SDS011;40971;44.702;11.030;2022-11-12T16:31:50;45.72;;;20.80;;
55076;SDS011;40971;44.702;11.030;2022-11-12T16:34:16;32.08;;;16.67;;
55076;SDS011;40971;44.702;11.030;2022-11-12T16:36:41;35.33;;;15.90;;
55076;SDS011;40971;44.702;11.030;2022-11-12T16:39:08;30.23;;;14.73;;
55076;SDS011;40971;44.702;11.030;2022-11-12T16:41:37;37.72;;;13.90;;
55076;SDS011;40971;44.702;11.030;2022-11-12T16:44:02;35.00;;;16.50;;
55076;SDS011;40971;44.702;11.030;2022-11-12T16:46:29;31.92;;;16.63;;